createdAt,value
2022-09-15T00:00:40.543Z,78.02
2022-09-15T00:04:16.498Z,78.07
2022-09-15T00:07:53.415Z,78.04
2022-09-15T00:11:33.534Z,77.27
2022-09-15T00:15:08.338Z,78.08
2022-09-15T00:18:45.420Z,77.78
2022-09-15T00:22:24.408Z,77.62
2022-09-15T00:25:58.688Z,77.47
2022-09-15T00:29:36.005Z,77.86
2022-09-15T00:33:18.250Z,78.16
2022-09-15T00:36:47.828Z,78.02
2022-09-15T00:44:21.616Z,77.70
2022-09-15T00:51:18.602Z,78.77
2022-09-15T00:55:15.782Z,78.87
2022-09-15T00:58:48.076Z,78.52
2022-09-15T01:02:30.965Z,78.68
2022-09-15T01:09:24.156Z,78.55
2022-09-15T01:13:04.229Z,78.51
2022-09-15T01:20:31.182Z,78.79
2022-09-15T01:24:05.516Z,79.07
2022-09-15T01:27:41.136Z,79.99
2022-09-15T01:32:04.868Z,79.84
2022-09-15T01:35:23.672Z,79.73
2022-09-15T01:39:01.093Z,79.58
2022-09-15T01:42:20.428Z,79.91
2022-09-15T01:45:55.390Z,79.48
2022-09-15T01:49:45.857Z,79.20
2022-09-15T01:53:15.608Z,79.21
2022-09-15T01:56:46.336Z,79.16
2022-09-15T02:00:22.455Z,78.53
2022-09-15T02:04:07.061Z,78.90
2022-09-15T02:07:45.543Z,79.22
2022-09-15T02:11:25.257Z,78.90
2022-09-15T02:15:01.226Z,79.17
2022-09-15T02:18:58.939Z,79.39
2022-09-15T02:22:14.703Z,79.68
2022-09-15T02:25:56.385Z,79.74
2022-09-15T02:29:29.363Z,79.69
2022-09-15T02:33:09.695Z,80.00
2022-09-15T02:36:42.829Z,79.55
2022-09-15T02:40:16.554Z,80.24
2022-09-15T02:43:53.408Z,79.71
2022-09-15T02:47:32.182Z,79.70
2022-09-15T02:51:07.100Z,80.50
2022-09-15T02:54:43.846Z,79.96
2022-09-15T02:58:20.586Z,79.60
2022-09-15T03:01:57.959Z,80.30
2022-09-15T03:05:34.199Z,80.42
2022-09-15T03:09:20.563Z,80.39
2022-09-15T03:12:50.496Z,80.16
2022-09-15T03:16:25.876Z,80.40
2022-09-15T03:20:02.437Z,80.21
2022-09-15T03:23:38.958Z,80.43
2022-09-15T03:27:14.980Z,80.64
2022-09-15T03:30:52.049Z,80.46
2022-09-15T03:34:29.288Z,80.91
2022-09-15T03:38:05.243Z,80.21
2022-09-15T03:41:41.922Z,80.86
2022-09-15T03:45:19.280Z,80.92
2022-09-15T03:48:55.547Z,80.80
2022-09-15T03:52:33.166Z,81.01
2022-09-15T03:56:12.399Z,81.37
2022-09-15T03:59:45.978Z,80.97
2022-09-15T04:03:23.348Z,81.15
2022-09-15T04:06:59.866Z,81.04
2022-09-15T04:10:39.424Z,81.44
2022-09-15T04:14:13.387Z,81.46
2022-09-15T04:17:50.261Z,82.23
2022-09-15T04:25:04.321Z,83.37
2022-09-15T04:28:40.999Z,83.72
2022-09-15T04:32:17.385Z,83.96
2022-09-15T04:36:10.728Z,83.65
2022-09-15T04:39:31.051Z,83.45
2022-09-15T04:43:08.443Z,83.44
2022-09-15T04:46:44.442Z,83.08
2022-09-15T04:50:23.175Z,83.55
2022-09-15T04:53:59.466Z,83.50
2022-09-15T04:57:36.027Z,83.77
2022-09-15T05:04:58.860Z,85.12
2022-09-15T05:08:26.984Z,85.50
2022-09-15T05:12:09.693Z,85.53
2022-09-15T05:15:52.443Z,85.56
2022-09-15T05:22:55.783Z,86.30
2022-09-15T05:26:54.569Z,86.08
2022-09-15T05:33:48.808Z,85.61
2022-09-15T05:37:23.489Z,85.64
2022-09-15T05:41:08.803Z,85.35
2022-09-15T05:44:39.132Z,85.57
2022-09-15T05:48:15.725Z,85.02
2022-09-15T05:51:51.789Z,84.21
2022-09-15T05:55:28.992Z,84.46
2022-09-15T05:59:06.575Z,84.20
2022-09-15T06:02:43.300Z,84.21
2022-09-15T06:06:20.095Z,84.06
2022-09-15T06:09:55.118Z,83.63
2022-09-15T06:13:32.687Z,83.23
2022-09-15T06:17:08.568Z,82.37
2022-09-15T06:20:47.862Z,81.41
2022-09-15T06:24:26.889Z,81.38
2022-09-15T06:27:59.263Z,81.40
2022-09-15T06:31:36.742Z,80.52
2022-09-15T06:35:13.651Z,80.41
2022-09-15T06:38:50.633Z,80.36
2022-09-15T06:42:27.550Z,80.18
2022-09-15T06:46:13.127Z,79.89
2022-09-15T06:49:40.419Z,78.40
2022-09-15T06:53:16.469Z,78.18
2022-09-15T06:56:53.402Z,77.53
2022-09-15T07:00:31.205Z,77.45
2022-09-15T07:04:11.398Z,77.70
2022-09-15T07:07:43.873Z,77.60
2022-09-15T07:11:21.471Z,77.58
2022-09-15T07:14:57.422Z,78.10
2022-09-15T07:18:36.776Z,78.45
2022-09-15T07:22:12.135Z,77.52
2022-09-15T07:25:47.757Z,78.16
2022-09-15T07:29:24.242Z,77.54
2022-09-15T07:33:03.134Z,78.92
2022-09-15T07:36:47.688Z,78.25
2022-09-15T07:40:15.747Z,77.41
2022-09-15T07:44:13.012Z,78.16
2022-09-15T07:47:28.977Z,78.40
2022-09-15T07:51:07.148Z,77.35
2022-09-15T07:54:42.159Z,77.35
2022-09-15T07:58:20.145Z,77.16
2022-09-15T08:01:55.914Z,76.68
2022-09-15T08:05:38.665Z,75.89
2022-09-15T08:09:15.221Z,75.77
2022-09-15T08:12:46.287Z,75.05
2022-09-15T08:16:24.726Z,74.81
2022-09-15T08:20:02.325Z,74.70
2022-09-15T08:23:37.224Z,74.39
2022-09-15T08:27:14.576Z,74.40
2022-09-15T08:30:49.818Z,74.53
2022-09-15T08:34:28.555Z,73.59
2022-09-15T08:38:03.668Z,74.22
2022-09-15T08:41:47.012Z,73.99
2022-09-15T08:45:30.657Z,74.55
2022-09-15T09:18:30.402Z,71.59
2022-09-15T09:21:38.967Z,72.23
2022-09-15T09:25:26.560Z,71.60
2022-09-15T09:28:56.315Z,72.46
2022-09-15T09:32:32.296Z,72.41
2022-09-15T09:36:02.968Z,72.46
2022-09-15T09:39:33.789Z,71.66
2022-09-15T09:43:13.476Z,72.50
2022-09-15T09:46:49.499Z,72.40
2022-09-15T09:50:44.079Z,71.84
2022-09-15T09:54:16.696Z,70.83
2022-09-15T09:57:40.727Z,69.08
2022-09-15T10:01:18.063Z,68.93
2022-09-15T10:05:03.293Z,68.87
2022-09-15T10:08:27.960Z,68.73
2022-09-15T10:12:07.359Z,69.52
2022-09-15T10:15:44.161Z,68.44
2022-09-15T10:19:18.989Z,68.17
2022-09-15T10:23:24.556Z,68.37
2022-09-15T10:26:35.746Z,69.57
2022-09-15T10:30:17.597Z,70.54
2022-09-15T10:33:48.564Z,72.35
2022-09-15T10:37:52.691Z,74.60
2022-09-15T10:41:21.130Z,75.73
2022-09-15T10:44:47.919Z,76.65
2022-09-15T10:48:35.139Z,76.38
2022-09-15T10:52:21.454Z,76.30
2022-09-15T10:55:52.981Z,75.96
2022-09-15T10:59:18.527Z,73.61
2022-09-15T11:03:23.088Z,73.89
2022-09-15T11:06:44.102Z,74.23
2022-09-15T11:10:15.510Z,75.11
2022-09-15T11:13:56.837Z,72.82
2022-09-15T11:17:40.825Z,71.28
2022-09-15T11:21:13.218Z,70.85
2022-09-15T11:24:55.828Z,70.24
2022-09-15T11:28:33.048Z,69.00
2022-09-15T11:31:51.984Z,71.17
2022-09-15T11:35:42.664Z,70.33
2022-09-15T11:39:10.842Z,71.63
2022-09-15T11:42:46.042Z,75.29
2022-09-15T11:46:23.817Z,76.44
2022-09-15T11:50:12.857Z,74.51
2022-09-15T11:53:39.595Z,72.67
2022-09-15T11:57:04.692Z,72.70
2022-09-15T12:00:51.814Z,74.38
2022-09-15T12:04:26.101Z,74.29
2022-09-15T12:08:21.098Z,74.43
2022-09-15T12:12:02.147Z,73.96
2022-09-15T12:15:15.396Z,73.91
2022-09-15T12:19:07.665Z,72.64
2022-09-15T12:22:49.155Z,72.72
2022-09-15T12:26:22.876Z,72.04
2022-09-15T12:29:42.153Z,71.72
2022-09-15T12:33:43.444Z,71.85
2022-09-15T12:36:51.526Z,71.60
2022-09-15T12:40:36.229Z,71.37
2022-09-15T12:44:07.503Z,70.87
2022-09-15T12:47:42.707Z,68.56
2022-09-15T12:51:29.424Z,68.88
2022-09-15T12:54:57.668Z,68.95
2022-09-15T12:58:39.689Z,69.20
2022-09-15T13:02:46.435Z,70.38
2022-09-15T13:06:21.107Z,69.75
2022-09-15T13:10:19.013Z,70.35
2022-09-15T13:13:45.608Z,70.40
2022-09-15T13:17:11.835Z,70.68
2022-09-15T13:20:38.830Z,69.71
2022-09-15T13:24:44.275Z,69.05
2022-09-15T13:28:03.650Z,70.41
2022-09-15T13:31:38.999Z,72.79
2022-09-15T13:35:32.839Z,75.73
2022-09-15T13:39:04.525Z,75.94
2022-09-15T13:42:19.128Z,77.73
2022-09-15T13:45:53.213Z,78.62
2022-09-15T13:49:49.274Z,78.29
2022-09-15T13:53:42.979Z,78.34
2022-09-15T13:57:02.139Z,79.04
2022-09-15T14:00:55.614Z,78.64
2022-09-15T14:04:15.440Z,78.24
2022-09-15T14:08:18.111Z,77.80
2022-09-15T14:11:35.644Z,77.56
2022-09-15T14:15:06.662Z,76.43
2022-09-15T14:18:43.837Z,77.08
2022-09-15T14:22:26.397Z,77.09
2022-09-15T14:25:51.308Z,76.81
2022-09-15T14:29:28.308Z,76.99
2022-09-15T14:33:24.147Z,76.02
2022-09-15T14:36:41.400Z,76.29
2022-09-15T15:23:28.227Z,75.41
2022-09-15T15:26:39.825Z,75.74
2022-09-15T15:30:31.040Z,75.70
2022-09-15T15:33:52.430Z,76.20
2022-09-15T15:37:34.356Z,75.91
2022-09-15T15:41:08.386Z,75.57
2022-09-15T15:44:35.145Z,76.10
2022-09-15T15:48:12.564Z,75.57
2022-09-15T15:51:48.971Z,75.60
2022-09-15T15:55:37.111Z,75.32
2022-09-15T15:59:02.347Z,75.49
2022-09-15T16:02:39.905Z,74.24
2022-09-15T16:06:16.211Z,74.30
2022-09-15T16:09:54.495Z,74.11
2022-09-15T16:13:31.295Z,74.33
2022-09-15T16:17:06.917Z,74.39
2022-09-15T16:20:44.277Z,73.44
2022-09-15T16:24:20.007Z,73.30
2022-09-15T16:27:57.517Z,73.29
2022-09-15T16:31:35.328Z,73.22
2022-09-15T16:35:36.792Z,73.52
2022-09-15T16:38:47.285Z,73.80
2022-09-15T16:42:26.125Z,73.96
2022-09-15T16:46:02.652Z,74.40
2022-09-15T16:49:40.850Z,74.81
2022-09-15T16:53:20.367Z,74.96
2022-09-15T16:56:52.456Z,75.08
2022-09-15T17:00:30.557Z,75.55
2022-09-15T17:04:15.587Z,76.06
2022-09-15T17:07:42.165Z,76.33
2022-09-15T17:11:20.390Z,76.04
2022-09-15T17:14:57.952Z,75.94
2022-09-15T17:18:31.777Z,76.85
2022-09-15T17:22:09.960Z,77.24
2022-09-15T17:25:52.728Z,77.54
2022-09-15T17:29:22.663Z,78.14
2022-09-15T17:33:08.786Z,77.78
2022-09-15T17:36:38.079Z,77.99
2022-09-15T17:40:15.703Z,79.18
2022-09-15T17:43:49.671Z,78.37
2022-09-15T17:47:26.279Z,78.25
2022-09-15T17:51:03.446Z,78.90
2022-09-15T17:54:41.697Z,78.98
2022-09-15T17:58:18.480Z,78.21
2022-09-15T18:02:19.498Z,77.59
2022-09-15T18:05:37.939Z,77.45
2022-09-15T18:09:07.614Z,76.13
2022-09-15T18:12:48.385Z,76.46
2022-09-15T18:16:21.975Z,75.77
2022-09-15T18:19:57.664Z,76.10
2022-09-15T18:23:35.288Z,76.95
2022-09-15T18:27:31.567Z,78.34
2022-09-15T18:30:55.942Z,78.66
2022-09-15T18:34:28.464Z,78.78
2022-09-15T18:38:03.455Z,79.35
2022-09-15T18:41:39.311Z,80.15
2022-09-15T18:45:17.357Z,79.94
2022-09-15T18:48:54.101Z,80.32
2022-09-15T18:52:31.892Z,81.20
2022-09-15T18:56:13.922Z,81.06
2022-09-15T18:59:42.372Z,81.24
2022-09-15T19:03:19.464Z,81.34
2022-09-15T19:06:57.738Z,81.42
2022-09-15T19:10:32.953Z,80.81
2022-09-15T19:14:09.264Z,81.19
2022-09-15T19:17:47.118Z,80.84
2022-09-15T19:21:33.004Z,81.79
2022-09-15T19:25:00.080Z,81.82
2022-09-15T19:28:37.097Z,81.92
2022-09-15T19:32:15.205Z,81.06
2022-09-15T19:35:59.955Z,80.38
2022-09-15T19:39:27.177Z,81.19
2022-09-15T19:43:03.551Z,80.19
2022-09-15T19:46:40.591Z,80.26
2022-09-15T19:50:17.683Z,79.94
2022-09-15T19:53:56.604Z,79.63
2022-09-15T19:57:31.058Z,79.32
2022-09-15T20:01:07.505Z,79.34
2022-09-15T20:08:21.922Z,79.62
2022-09-15T20:12:16.773Z,79.59
2022-09-15T20:15:34.784Z,79.95
2022-09-15T20:19:11.600Z,80.28
2022-09-15T20:22:48.167Z,80.53
2022-09-15T20:26:25.732Z,80.87
2022-09-15T20:30:02.167Z,81.20
2022-09-15T20:33:40.631Z,81.75
2022-09-15T20:37:14.974Z,81.41
2022-09-15T20:40:55.890Z,81.66
2022-09-15T20:44:29.063Z,81.12
2022-09-15T20:48:05.652Z,81.71
2022-09-15T20:51:42.947Z,81.85
2022-09-15T20:55:19.732Z,81.90
2022-09-15T20:59:00.334Z,81.91
2022-09-15T21:02:34.831Z,82.40
2022-09-15T21:06:13.011Z,81.87
2022-09-15T21:09:47.265Z,81.92
2022-09-15T21:13:23.375Z,82.86
2022-09-15T21:17:00.837Z,82.66
2022-09-15T21:20:36.738Z,81.88
2022-09-15T21:24:14.072Z,82.64
2022-09-15T21:27:50.565Z,82.71
2022-09-15T21:31:32.455Z,82.97
2022-09-15T21:35:04.606Z,83.79
2022-09-15T21:38:44.410Z,83.51
2022-09-15T21:42:22.751Z,83.75
2022-09-15T21:45:58.659Z,83.43
2022-09-15T21:49:31.450Z,82.90
2022-09-15T21:53:07.918Z,83.23
2022-09-15T21:56:45.429Z,83.26
2022-09-15T22:00:21.452Z,83.22
2022-09-15T22:04:06.943Z,82.49
2022-09-15T22:07:35.313Z,81.76
2022-09-15T22:11:12.143Z,82.66
2022-09-15T22:14:50.053Z,81.88
2022-09-15T22:18:25.459Z,81.65
2022-09-15T22:22:02.371Z,80.83
2022-09-15T22:25:39.092Z,80.37
2022-09-15T22:29:16.190Z,80.66
2022-09-15T22:32:53.189Z,80.51
2022-09-15T22:36:31.156Z,82.05
2022-09-15T22:40:07.159Z,82.84
2022-09-15T22:43:45.671Z,83.60
2022-09-15T22:47:19.753Z,84.07
2022-09-15T22:50:56.334Z,84.20
2022-09-15T22:54:33.631Z,84.38
2022-09-15T22:58:11.989Z,84.68
2022-09-15T23:01:47.434Z,84.82
2022-09-15T23:05:23.739Z,84.21
2022-09-15T23:09:03.633Z,84.04
2022-09-15T23:12:37.429Z,84.15
2022-09-15T23:16:14.276Z,84.61
2022-09-15T23:19:51.005Z,84.42
2022-09-15T23:23:28.334Z,83.96
2022-09-15T23:27:04.837Z,84.04
2022-09-15T23:30:41.515Z,83.63
2022-09-15T23:34:18.854Z,83.77
2022-09-15T23:37:55.085Z,83.77
2022-09-15T23:41:31.715Z,83.53
2022-09-15T23:45:08.756Z,83.09
2022-09-15T23:48:45.583Z,82.20
2022-09-15T23:52:21.957Z,82.26
2022-09-15T23:56:01.075Z,83.39
2022-09-15T23:59:35.423Z,83.46
